Погода Элйяшевна неделю

Лодзинское воеводство, Польша

24 - 30 мая
  • 24мая
    Сегодня
    +14°
    +26°
    Практически безоблачно
    ВремяПогодаТемператураВлажностьДавлениеВетер, м/сВероятность осадков
    02:00Пасмурно, дождь+15°C96 %755 мм0.7 м/с47 %
    05:00Небольшая облачность+14°C99 %755 мм0.8 м/с42 %
    08:00Ясно и безоблачно+18°C87 %756 мм0.9 м/с9 %
    11:00Практически безоблачно+22°C60 %756 мм1.7 м/с2 %
    14:00Практически безоблачно+25°C54 %756 мм2.3 м/с4 %
    17:00Практически безоблачно+25°C49 %755 мм4.1 м/с4 %
    20:00Ясно и безоблачно+22°C63 %755 мм2.0 м/с14 %
    23:00Ясно и безоблачно+16°C83 %755 мм2.4 м/с1 %
  • 25мая
    Суббота
    +11°
    +26°
    Практически безоблачно
    ВремяПогодаТемператураВлажностьДавлениеВетер, м/сВероятность осадков
    02:00Ясно и безоблачно+15°C89 %755 мм1.8 м/с2 %
    05:00Ясно и безоблачно+14°C91 %756 мм2.8 м/с2 %
    08:00Ясно и безоблачно+19°C77 %756 мм2.1 м/с2 %
    11:00Практически безоблачно+23°C58 %756 мм2.7 м/с9 %
    14:00Практически безоблачно+25°C53 %756 мм2.5 м/с27 %
    17:00Облачно с прояснениями+26°C50 %755 мм2.0 м/с41 %
    20:00Облачно с прояснениями+19°C79 %756 мм0.3 м/с49 %
    23:00Облачно с прояснениями+15°C95 %756 мм1.9 м/с15 %
  • 26мая
    Воскресенье
    +12°
    +26°
    Практически безоблачно
    ВремяПогодаТемператураВлажностьДавлениеВетер, м/сВероятность осадков
    02:00Небольшая облачность+13°C95 %756 мм1.9 м/с2 %
    05:00Ясно и безоблачно+12°C98 %756 мм1.9 м/с2 %
    08:00Ясно и безоблачно+19°C82 %757 мм0.8 м/с2 %
    11:00Практически безоблачно+24°C53 %757 мм1.8 м/с10 %
    14:00Практически безоблачно+25°C44 %757 мм2.1 м/с27 %
    17:00Практически безоблачно+25°C36 %756 мм3.6 м/с36 %
    20:00Небольшая облачность+22°C58 %757 мм2.6 м/с21 %
    23:00Ясно и безоблачно+16°C74 %757 мм2.0 м/с3 %
  • 27мая
    Понедельник
    +11°
    +27°
    Ясно и безоблачно
    ВремяПогодаТемператураВлажностьДавлениеВетер, м/сВероятность осадков
    02:00Ясно и безоблачно+15°C79 %757 мм1.9 м/с2 %
    05:00Ясно и безоблачно+12°C79 %757 мм2.5 м/с2 %
    08:00Ясно и безоблачно+18°C58 %758 мм2.4 м/с2 %
    11:00Ясно и безоблачно+24°C42 %758 мм2.3 м/с5 %
    14:00Ясно и безоблачно+26°C27 %757 мм3.5 м/с9 %
    17:00Ясно и безоблачно+26°C27 %756 мм3.5 м/с12 %
    20:00Ясно и безоблачно+22°C53 %756 мм2.0 м/с4 %
    23:00Ясно и безоблачно+15°C54 %756 мм3.0 м/с2 %
  • 28мая
    Вторник
    +12°
    +26°
    Пасмурно, сплошная облачность
    ВремяПогодаТемператураВлажностьДавлениеВетер, м/сВероятность осадков
    02:00Ясно и безоблачно+14°C51 %756 мм2.9 м/с2 %
    05:00Ясно и безоблачно+12°C59 %756 мм2.8 м/с2 %
    08:00Ясно и безоблачно+19°C51 %756 мм3.1 м/с2 %
    11:00Ясно и безоблачно+25°C27 %756 мм4.9 м/с2 %
    14:00Пасмурно, сплошная облачность+26°C25 %755 мм4.9 м/с4 %
    17:00Облачно с прояснениями+26°C26 %754 мм4.2 м/с11 %
    20:00Ясно и безоблачно+22°C50 %754 мм2.4 м/с6 %
    23:00Практически безоблачно+17°C51 %754 мм1.0 м/с2 %
Мы используем cookies
Соглашаюсь